createdAt,value
2022-12-03T00:00:54.051Z,-93
2022-12-03T00:03:23.085Z,-93
2022-12-03T00:05:53.693Z,-93
2022-12-03T00:08:22.472Z,-93
2022-12-03T00:10:51.251Z,-93
2022-12-03T00:13:19.989Z,-93
2022-12-03T00:15:48.923Z,-93
2022-12-03T00:18:17.878Z,-93
2022-12-03T00:20:46.606Z,-93
2022-12-03T00:23:17.038Z,-93
2022-12-03T00:25:45.701Z,-91
2022-12-03T00:28:14.420Z,-93
2022-12-03T00:30:49.078Z,-93
2022-12-03T00:33:17.936Z,-93
2022-12-03T00:35:46.748Z,-93
2022-12-03T00:38:17.031Z,-91
2022-12-03T00:40:45.765Z,-92
2022-12-03T00:43:14.567Z,-92
2022-12-03T00:45:43.442Z,-93
2022-12-03T00:48:12.223Z,-93
2022-12-03T00:50:40.923Z,-92
2022-12-03T00:53:09.574Z,-92
2022-12-03T00:55:39.651Z,-92
2022-12-03T00:58:11.588Z,-91
2022-12-03T01:00:40.353Z,-92
2022-12-03T01:03:09.214Z,-92
2022-12-03T01:05:38.094Z,-92
2022-12-03T01:08:07.475Z,-92
2022-12-03T01:10:36.382Z,-93
2022-12-03T01:13:06.608Z,-93
2022-12-03T01:15:36.157Z,-93
2022-12-03T01:18:05.424Z,-93
2022-12-03T01:20:36.450Z,-92
2022-12-03T01:23:05.300Z,-92
2022-12-03T01:25:34.222Z,-92
2022-12-03T01:28:02.988Z,-93
2022-12-03T01:30:53.207Z,-92
2022-12-03T01:33:20.905Z,-92
2022-12-03T01:35:49.597Z,-92
2022-12-03T01:38:20.295Z,-92
2022-12-03T01:40:50.122Z,-93
2022-12-03T01:43:18.937Z,-92
2022-12-03T01:45:49.120Z,-93
2022-12-03T01:48:18.979Z,-92
2022-12-03T01:50:48.153Z,-92
2022-12-03T01:53:19.187Z,-92
2022-12-03T01:55:49.030Z,-92
2022-12-03T01:58:25.036Z,-92
2022-12-03T02:00:55.436Z,-92
2022-12-03T02:03:27.231Z,-92
2022-12-03T02:05:56.967Z,-93
2022-12-03T02:08:31.198Z,-92
2022-12-03T02:11:04.350Z,-92
2022-12-03T02:13:34.287Z,-93
2022-12-03T02:16:05.704Z,-93
2022-12-03T02:18:34.532Z,-92
2022-12-03T02:21:13.972Z,-92
2022-12-03T02:23:57.098Z,-93
2022-12-03T02:26:27.479Z,-93
2022-12-03T02:28:56.199Z,-92
2022-12-03T02:31:25.644Z,-93
2022-12-03T02:33:54.399Z,-92
2022-12-03T02:36:23.416Z,-91
2022-12-03T02:38:53.432Z,-92
2022-12-03T02:41:44.369Z,-93
2022-12-03T02:44:14.015Z,-92
2022-12-03T02:46:43.086Z,-92
2022-12-03T02:49:12.425Z,-92
2022-12-03T02:51:41.121Z,-93
2022-12-03T02:54:09.948Z,-94
2022-12-03T02:56:40.095Z,-93
2022-12-03T02:59:08.804Z,-94
2022-12-03T03:01:37.836Z,-91
2022-12-03T03:04:07.922Z,-91
2022-12-03T03:06:36.773Z,-92
2022-12-03T03:09:06.111Z,-92
2022-12-03T03:11:35.160Z,-92
2022-12-03T03:14:05.623Z,-92
2022-12-03T03:16:35.540Z,-92
2022-12-03T03:19:04.560Z,-92
2022-12-03T03:21:33.416Z,-92
2022-12-03T03:24:02.170Z,-92
2022-12-03T03:26:31.018Z,-92
2022-12-03T03:29:00.424Z,-92
2022-12-03T03:31:30.773Z,-92
2022-12-03T03:33:59.834Z,-92
2022-12-03T03:36:28.725Z,-92
2022-12-03T03:38:57.707Z,-92
2022-12-03T03:41:29.123Z,-93
2022-12-03T03:43:58.628Z,-93
2022-12-03T03:46:30.825Z,-93
2022-12-03T03:48:59.591Z,-93
2022-12-03T03:51:28.442Z,-93
2022-12-03T03:53:57.727Z,-93
2022-12-03T03:56:26.569Z,-93
2022-12-03T03:58:56.620Z,-93
2022-12-03T04:01:26.344Z,-93
2022-12-03T04:03:57.535Z,-93
2022-12-03T04:06:26.634Z,-93
2022-12-03T04:08:55.542Z,-93
2022-12-03T04:11:41.623Z,-94
2022-12-03T04:14:10.289Z,-92
2022-12-03T04:16:39.109Z,-92
2022-12-03T04:19:09.262Z,-92
2022-12-03T04:22:06.813Z,-92
2022-12-03T04:24:35.508Z,-92
2022-12-03T04:27:21.890Z,-92
2022-12-03T04:29:50.652Z,-93
2022-12-03T04:32:36.967Z,-93
2022-12-03T04:35:26.445Z,-93
2022-12-03T04:37:56.052Z,-93
2022-12-03T04:40:42.703Z,-93
2022-12-03T04:43:11.629Z,-93
2022-12-03T04:45:40.487Z,-93
2022-12-03T04:48:10.486Z,-93
2022-12-03T04:50:41.530Z,-93
2022-12-03T04:53:10.973Z,-93
2022-12-03T04:55:40.066Z,-93
2022-12-03T04:58:09.132Z,-93
2022-12-03T05:00:37.948Z,-93
2022-12-03T05:03:06.723Z,-92
2022-12-03T05:05:35.688Z,-93
2022-12-03T05:08:08.374Z,-93
2022-12-03T05:10:37.252Z,-92
2022-12-03T05:13:05.961Z,-92
2022-12-03T05:15:34.691Z,-92
2022-12-03T05:18:03.565Z,-92
2022-12-03T05:20:49.854Z,-92
2022-12-03T05:23:23.521Z,-93
2022-12-03T05:25:52.510Z,-93
2022-12-03T05:28:23.523Z,-92
2022-12-03T05:30:52.332Z,-92
2022-12-03T05:33:21.242Z,-92
2022-12-03T05:35:49.967Z,-92
2022-12-03T05:38:18.805Z,-92
2022-12-03T05:40:49.024Z,-92
2022-12-03T05:43:16.737Z,-92
2022-12-03T05:45:46.525Z,-92
2022-12-03T05:48:17.916Z,-92
2022-12-03T06:23:13.558Z,-93
2022-12-03T06:25:58.045Z,-91
2022-12-03T06:28:35.800Z,-91
2022-12-03T06:31:11.018Z,-91
2022-12-03T06:33:52.257Z,-91
2022-12-03T06:36:27.877Z,-91
2022-12-03T06:39:13.641Z,-91
2022-12-03T06:41:45.506Z,-90
2022-12-03T06:50:08.031Z,-91
2022-12-03T06:52:37.142Z,-90
2022-12-03T06:53:19.402Z,-91
2022-12-03T06:55:09.110Z,-90
2022-12-03T06:57:37.888Z,-90
2022-12-03T07:00:09.642Z,-90
2022-12-03T07:02:38.428Z,-90
2022-12-03T07:05:08.076Z,-91
2022-12-03T07:07:36.951Z,-91
2022-12-03T07:10:08.906Z,-91
2022-12-03T07:12:38.045Z,-91
2022-12-03T07:15:08.367Z,-90
2022-12-03T07:17:37.201Z,-90
2022-12-03T07:20:07.527Z,-91
2022-12-03T07:22:36.398Z,-90
2022-12-03T07:25:07.648Z,-90
2022-12-03T07:27:36.347Z,-91
2022-12-03T07:30:06.881Z,-91
2022-12-03T07:32:36.276Z,-90
2022-12-03T07:35:07.585Z,-87
2022-12-03T07:37:36.258Z,-86
2022-12-03T07:40:08.195Z,-87
2022-12-03T07:42:36.793Z,-87
2022-12-03T07:45:06.701Z,-87
2022-12-03T07:47:35.305Z,-87
2022-12-03T07:50:04.050Z,-87
2022-12-03T07:52:32.631Z,-87
2022-12-03T07:55:01.274Z,-87
2022-12-03T07:57:31.234Z,-86
2022-12-03T07:59:59.782Z,-87
2022-12-03T08:02:28.424Z,-87
2022-12-03T08:04:57.089Z,-87
2022-12-03T08:07:25.856Z,-87
2022-12-03T08:09:54.658Z,-87
2022-12-03T08:12:40.170Z,-87
2022-12-03T08:15:17.479Z,-88
2022-12-03T08:17:48.791Z,-87
2022-12-03T08:20:21.281Z,-87
2022-12-03T08:22:52.642Z,-87
2022-12-03T08:25:26.039Z,-88
2022-12-03T08:28:01.617Z,-87
2022-12-03T08:30:31.936Z,-88
2022-12-03T08:33:01.308Z,-88
2022-12-03T08:35:32.549Z,-87
2022-12-03T08:38:10.691Z,-87
2022-12-03T08:40:44.007Z,-87
2022-12-03T08:43:21.370Z,-86
2022-12-03T08:45:53.468Z,-86
2022-12-03T08:48:33.831Z,-86
2022-12-03T08:51:07.576Z,-86
2022-12-03T08:53:41.062Z,-86
2022-12-03T08:56:24.930Z,-87
2022-12-03T08:58:58.945Z,-87
2022-12-03T09:01:43.031Z,-86
2022-12-03T09:04:32.382Z,-86
2022-12-03T09:07:00.917Z,-85
2022-12-03T09:09:29.606Z,-86
2022-12-03T09:11:58.428Z,-86
2022-12-03T09:14:26.920Z,-86
2022-12-03T09:16:57.763Z,-86
2022-12-03T09:19:31.105Z,-86
2022-12-03T09:21:59.888Z,-86
2022-12-03T09:24:28.496Z,-87
2022-12-03T09:26:56.998Z,-86
2022-12-03T09:29:25.514Z,-84
2022-12-03T09:31:56.529Z,-89
2022-12-03T09:34:28.877Z,-88
2022-12-03T09:36:57.485Z,-88
2022-12-03T09:39:26.048Z,-88
2022-12-03T09:41:56.201Z,-88
2022-12-03T09:44:24.890Z,-88
2022-12-03T09:46:53.515Z,-88
2022-12-03T09:49:22.125Z,-87
2022-12-03T09:51:52.111Z,-87
2022-12-03T09:54:25.577Z,-89
2022-12-03T09:56:55.582Z,-88
2022-12-03T09:59:28.751Z,-87
2022-12-03T10:01:57.782Z,-88
2022-12-03T10:04:27.974Z,-87
2022-12-03T10:06:59.399Z,-87
2022-12-03T10:09:30.448Z,-86
2022-12-03T10:12:03.872Z,-87
2022-12-03T10:14:33.058Z,-87
2022-12-03T10:17:01.841Z,-87
2022-12-03T10:19:35.869Z,-86
2022-12-03T10:22:05.997Z,-87
2022-12-03T10:24:36.730Z,-88
2022-12-03T10:27:22.834Z,-87
2022-12-03T10:30:00.227Z,-88
2022-12-03T10:32:41.367Z,-87
2022-12-03T10:35:14.660Z,-88
2022-12-03T10:38:03.569Z,-87
2022-12-03T10:40:34.507Z,-87
2022-12-03T10:43:22.995Z,-88
2022-12-03T10:46:11.081Z,-87
2022-12-03T10:48:40.183Z,-86
2022-12-03T10:51:20.883Z,-87
2022-12-03T10:53:52.061Z,-87
2022-12-03T10:56:27.578Z,-86
2022-12-03T10:58:56.967Z,-86
2022-12-03T11:01:27.924Z,-86
2022-12-03T11:04:04.220Z,-86
2022-12-03T11:06:33.644Z,-86
2022-12-03T11:09:08.821Z,-87
2022-12-03T11:11:38.044Z,-87
2022-12-03T11:14:07.156Z,-87
2022-12-03T11:17:11.500Z,-87
2022-12-03T11:19:52.134Z,-87
2022-12-03T11:22:46.803Z,-86
2022-12-03T11:25:51.481Z,-86
2022-12-03T11:28:54.075Z,-87
2022-12-03T11:31:42.900Z,-86
2022-12-03T11:34:48.759Z,-87
2022-12-03T11:37:26.663Z,-87
2022-12-03T11:40:39.436Z,-88
2022-12-03T11:43:12.152Z,-87
2022-12-03T11:45:40.907Z,-86
2022-12-03T11:48:16.329Z,-86
2022-12-03T11:50:51.130Z,-86
2022-12-03T11:53:24.833Z,-87
2022-12-03T11:56:06.669Z,-86
2022-12-03T11:58:38.837Z,-87
2022-12-03T12:01:10.035Z,-86
2022-12-03T12:03:57.062Z,-92
2022-12-03T12:07:18.807Z,-92
2022-12-03T12:10:04.570Z,-92
2022-12-03T12:13:01.651Z,-92
2022-12-03T12:15:55.816Z,-91
2022-12-03T12:18:43.852Z,-87
2022-12-03T12:21:42.347Z,-87
2022-12-03T12:24:46.989Z,-86
2022-12-03T12:27:18.882Z,-87
2022-12-03T12:29:55.209Z,-87
2022-12-03T12:32:29.716Z,-86
2022-12-03T12:35:04.637Z,-87
2022-12-03T12:37:37.370Z,-92
2022-12-03T12:40:15.848Z,-91
2022-12-03T12:42:51.259Z,-91
2022-12-03T12:45:25.291Z,-91
2022-12-03T12:48:14.625Z,-89
2022-12-03T12:51:01.564Z,-87
2022-12-03T12:53:33.933Z,-91
2022-12-03T12:56:11.863Z,-91
2022-12-03T12:58:44.859Z,-92
2022-12-03T13:01:24.635Z,-91
2022-12-03T13:03:55.982Z,-91
2022-12-03T13:06:32.752Z,-91
2022-12-03T13:09:02.241Z,-86
2022-12-03T13:11:41.354Z,-85
2022-12-03T13:14:18.176Z,-86
2022-12-03T13:16:48.239Z,-86
2022-12-03T13:19:27.343Z,-86
2022-12-03T13:21:58.220Z,-86
2022-12-03T13:24:35.289Z,-86
2022-12-03T13:27:25.736Z,-86
2022-12-03T13:30:00.384Z,-86
2022-12-03T13:32:32.947Z,-86
2022-12-03T13:35:08.718Z,-86
2022-12-03T13:37:39.530Z,-86
2022-12-03T13:40:24.291Z,-86
2022-12-03T13:42:54.439Z,-86
2022-12-03T13:45:35.385Z,-85
2022-12-03T13:48:17.003Z,-86
2022-12-03T13:50:47.341Z,-86
2022-12-03T13:53:24.397Z,-86
2022-12-03T13:55:59.220Z,-86
2022-12-03T13:58:27.760Z,-86
2022-12-03T14:00:56.420Z,-86
2022-12-03T14:03:24.884Z,-86
2022-12-03T14:05:54.811Z,-86
2022-12-03T14:08:23.327Z,-86
2022-12-03T14:10:55.546Z,-86
2022-12-03T14:13:27.271Z,-86
2022-12-03T14:15:55.993Z,-86
2022-12-03T14:18:24.616Z,-86
2022-12-03T14:20:54.492Z,-86
2022-12-03T14:23:23.050Z,-86
2022-12-03T14:25:51.498Z,-85
2022-12-03T14:28:20.126Z,-87
2022-12-03T14:30:48.733Z,-87
2022-12-03T14:33:17.355Z,-87
2022-12-03T14:35:46.043Z,-86
2022-12-03T14:38:16.086Z,-87
2022-12-03T14:40:44.677Z,-86
2022-12-03T14:43:13.226Z,-86
2022-12-03T14:45:41.856Z,-87
2022-12-03T14:48:10.375Z,-87
2022-12-03T14:50:38.986Z,-86
2022-12-03T14:53:07.559Z,-86
2022-12-03T14:55:37.617Z,-86
2022-12-03T14:58:06.185Z,-87
2022-12-03T15:00:34.768Z,-87
2022-12-03T15:03:03.427Z,-87
2022-12-03T15:05:32.013Z,-87
2022-12-03T15:08:00.546Z,-87
2022-12-03T15:10:29.162Z,-86
2022-12-03T15:12:59.275Z,-87
2022-12-03T15:15:27.905Z,-86
2022-12-03T15:17:56.539Z,-85
2022-12-03T15:20:25.092Z,-86
2022-12-03T15:22:53.661Z,-87
2022-12-03T15:25:25.595Z,-87
2022-12-03T15:27:54.274Z,-88
2022-12-03T15:30:24.264Z,-86
2022-12-03T15:32:53.328Z,-86
2022-12-03T15:35:22.019Z,-87
2022-12-03T15:37:51.471Z,-88
2022-12-03T15:40:20.165Z,-88
2022-12-03T15:42:49.033Z,-87
2022-12-03T15:45:17.947Z,-89
2022-12-03T15:47:47.995Z,-88
2022-12-03T15:50:16.928Z,-88
2022-12-03T15:52:45.603Z,-88
2022-12-03T15:55:14.504Z,-89
2022-12-03T15:57:43.174Z,-89
2022-12-03T16:00:15.210Z,-88
2022-12-03T16:02:50.741Z,-89
2022-12-03T16:05:22.565Z,-88
2022-12-03T16:07:51.232Z,-88
2022-12-03T16:10:21.563Z,-87
2022-12-03T16:12:50.426Z,-88
2022-12-03T16:15:26.463Z,-87
2022-12-03T16:17:55.801Z,-87
2022-12-03T16:20:25.892Z,-87
2022-12-03T16:22:54.500Z,-88
2022-12-03T16:25:23.083Z,-87
2022-12-03T16:27:51.686Z,-88
2022-12-03T16:30:20.388Z,-88
2022-12-03T16:32:49.021Z,-87
2022-12-03T16:35:17.800Z,-87
2022-12-03T16:37:47.912Z,-88
2022-12-03T16:40:16.777Z,-88
2022-12-03T16:42:45.438Z,-88
2022-12-03T16:45:31.454Z,-87
2022-12-03T16:48:00.202Z,-89
2022-12-03T16:50:30.481Z,-91
2022-12-03T16:53:02.937Z,-90
2022-12-03T16:55:31.690Z,-92
2022-12-03T16:58:00.546Z,-91
2022-12-03T17:00:40.199Z,-91
2022-12-03T17:03:09.493Z,-91
2022-12-03T17:05:38.427Z,-88
2022-12-03T17:08:08.915Z,-90
2022-12-03T17:10:37.872Z,-89
2022-12-03T17:13:09.813Z,-91
2022-12-03T17:15:40.157Z,-88
2022-12-03T17:18:10.082Z,-91
2022-12-03T17:20:39.081Z,-91
2022-12-03T17:23:09.523Z,-90
2022-12-03T17:25:38.186Z,-90
2022-12-03T17:28:07.106Z,-90
2022-12-03T17:30:35.890Z,-91
2022-12-03T17:33:04.753Z,-91
2022-12-03T17:35:33.568Z,-90
2022-12-03T17:38:05.543Z,-90
2022-12-03T17:40:35.912Z,-90
2022-12-03T17:43:04.580Z,-90
2022-12-03T17:45:33.547Z,-90
2022-12-03T17:48:02.352Z,-90
2022-12-03T17:50:31.142Z,-90
2022-12-03T17:52:59.880Z,-90
2022-12-03T17:55:38.329Z,-91
2022-12-03T17:58:12.991Z,-91
2022-12-03T18:00:43.599Z,-91
2022-12-03T18:03:12.726Z,-91
2022-12-03T18:05:41.868Z,-91
2022-12-03T18:08:10.631Z,-91
2022-12-03T18:10:39.477Z,-91
2022-12-03T18:13:08.381Z,-91
2022-12-03T18:15:38.918Z,-91
2022-12-03T18:18:07.825Z,-90
2022-12-03T18:21:06.345Z,-90
2022-12-03T18:23:36.886Z,-90
2022-12-03T18:26:06.570Z,-91
2022-12-03T18:28:35.610Z,-90
2022-12-03T18:31:06.954Z,-90
2022-12-03T18:33:36.752Z,-91
2022-12-03T18:36:13.462Z,-89
2022-12-03T18:38:43.704Z,-90
2022-12-03T18:41:12.740Z,-87
2022-12-03T18:43:43.368Z,-86
2022-12-03T18:46:45.004Z,-87
2022-12-03T18:49:03.676Z,-88
2022-12-03T18:51:33.805Z,-88
2022-12-03T18:54:02.533Z,-88
2022-12-03T18:56:31.267Z,-88
2022-12-03T18:58:59.839Z,-89
2022-12-03T19:01:28.644Z,-90
2022-12-03T19:03:57.449Z,-90
2022-12-03T19:06:26.063Z,-86
2022-12-03T19:08:56.029Z,-86
2022-12-03T19:11:24.957Z,-86
2022-12-03T19:13:53.643Z,-87
2022-12-03T19:16:22.265Z,-88
2022-12-03T19:18:51.079Z,-87
2022-12-03T19:21:19.980Z,-90
2022-12-03T19:24:16.445Z,-90
2022-12-03T19:26:39.204Z,-90
2022-12-03T19:29:08.770Z,-90
2022-12-03T19:31:37.931Z,-90
2022-12-03T19:34:06.744Z,-90
2022-12-03T19:36:35.475Z,-90
2022-12-03T19:39:04.383Z,-90
2022-12-03T19:41:33.416Z,-90
2022-12-03T19:44:09.240Z,-90
2022-12-03T19:46:39.773Z,-89
2022-12-03T19:49:08.911Z,-91
2022-12-03T19:51:38.155Z,-90
2022-12-03T19:54:09.497Z,-89
2022-12-03T19:56:38.214Z,-89
2022-12-03T19:59:08.951Z,-88
2022-12-03T20:01:40.500Z,-88
2022-12-03T20:04:12.636Z,-88
2022-12-03T20:06:41.693Z,-89
2022-12-03T20:09:13.841Z,-85
2022-12-03T20:11:44.611Z,-86
2022-12-03T20:14:17.247Z,-86
2022-12-03T20:16:47.442Z,-86
2022-12-03T20:19:18.671Z,-86
2022-12-03T20:21:47.460Z,-86
2022-12-03T20:24:18.231Z,-86
2022-12-03T20:26:46.835Z,-86
2022-12-03T20:29:16.787Z,-86
2022-12-03T20:31:45.476Z,-86
2022-12-03T20:34:14.184Z,-86
2022-12-03T20:36:44.312Z,-85
2022-12-03T20:39:13.136Z,-86
2022-12-03T20:41:41.819Z,-86
2022-12-03T20:44:10.494Z,-86
2022-12-03T20:46:40.607Z,-86
2022-12-03T20:49:09.179Z,-86
2022-12-03T20:51:37.981Z,-86
2022-12-03T20:54:06.670Z,-86
2022-12-03T20:56:39.528Z,-86
2022-12-03T20:59:12.298Z,-85
2022-12-03T21:01:43.652Z,-86
2022-12-03T21:04:16.122Z,-86
2022-12-03T21:06:45.062Z,-86
2022-12-03T21:09:14.694Z,-86
2022-12-03T21:11:43.596Z,-87
2022-12-03T21:14:12.555Z,-86
2022-12-03T21:17:07.261Z,-87
2022-12-03T21:19:35.143Z,-86
2022-12-03T21:22:03.720Z,-87
2022-12-03T21:24:32.366Z,-87
2022-12-03T21:27:01.004Z,-86
2022-12-03T21:29:29.490Z,-86
2022-12-03T21:31:59.564Z,-86
2022-12-03T21:34:32.818Z,-87
2022-12-03T21:37:05.211Z,-86
2022-12-03T21:39:33.827Z,-87
2022-12-03T21:42:34.055Z,-87
2022-12-03T21:44:51.104Z,-87
2022-12-03T21:47:21.874Z,-87
2022-12-03T21:49:50.455Z,-86
2022-12-03T21:52:19.114Z,-86
2022-12-03T21:54:48.033Z,-86
2022-12-03T21:57:16.678Z,-86
2022-12-03T21:59:45.360Z,-87
2022-12-03T22:02:14.283Z,-87
2022-12-03T22:04:44.523Z,-88
2022-12-03T22:07:15.904Z,-87
2022-12-03T22:09:44.480Z,-86
2022-12-03T22:12:13.405Z,-87
2022-12-03T22:14:41.992Z,-86
2022-12-03T22:17:10.776Z,-87
2022-12-03T22:19:39.769Z,-87
2022-12-03T22:22:09.918Z,-87
2022-12-03T22:24:38.942Z,-86
2022-12-03T22:27:07.574Z,-86
2022-12-03T22:29:36.219Z,-85
2022-12-03T22:32:05.353Z,-85
2022-12-03T22:34:34.172Z,-86
2022-12-03T22:37:02.726Z,-86
2022-12-03T22:39:32.806Z,-85
2022-12-03T22:42:01.406Z,-85
2022-12-03T22:44:30.392Z,-86
2022-12-03T22:46:59.163Z,-86
2022-12-03T22:49:28.666Z,-87
2022-12-03T22:51:57.306Z,-86
2022-12-03T22:54:25.925Z,-86
2022-12-03T22:56:56.001Z,-86
2022-12-03T22:59:24.624Z,-86
2022-12-03T23:01:53.317Z,-86
2022-12-03T23:04:22.668Z,-85
2022-12-03T23:06:51.838Z,-86
2022-12-03T23:09:21.423Z,-86
2022-12-03T23:11:51.046Z,-86
2022-12-03T23:14:21.109Z,-85
2022-12-03T23:16:49.805Z,-86
2022-12-03T23:19:20.029Z,-87
2022-12-03T23:21:48.812Z,-87
2022-12-03T23:24:17.664Z,-87
2022-12-03T23:26:46.322Z,-87
2022-12-03T23:29:14.927Z,-87
2022-12-03T23:31:45.076Z,-87
2022-12-03T23:34:13.764Z,-88
2022-12-03T23:36:42.637Z,-87
2022-12-03T23:39:11.641Z,-87
2022-12-03T23:41:40.298Z,-87
2022-12-03T23:44:08.892Z,-86
2022-12-03T23:46:41.289Z,-85
2022-12-03T23:49:11.549Z,-86
2022-12-03T23:51:40.351Z,-86
2022-12-03T23:54:08.935Z,-86
2022-12-03T23:56:37.489Z,-86
2022-12-03T23:59:06.293Z,-86
